Purdue University Airport
KLAF : now visible

Airfield :











YOU CAN JOIN US ON...

 
LOGIN :

Register | Disclaimer

   EN    FR    IT 

 









Legend :    VFR   Marginal VFR   IFR   Intensive IFR   Very Intensive IFR
Visi :
Ceiling :
>= 8 km
>= 3000ft
5 to 8 km
1000 to 3000 ft
1500m to 5 km
500 to 1000 ft
800 to 1500m
200 to 500 ft
< 800m
< 200 ft
Symbols :   Thunderstorms  Fog  Heavy snow  Heavy precipitations  Wind > 20 kt






- Airport Elevation : 606 ft
- IATA code : LAF


KLAF - Purdue University

CURRENT METAR :
  • 082354Z 18006G16KT 10SM CLR 28/19 A2990 RMK AO2 LTG DSNT S AND SW SLP118 60000 T02780194 10350 20278 50002

EXPIRED METARs :
  • 082254Z 17011G17KT 10SM FEW025 SCT033 SCT110 29/21 A2991 RMK AO2 LTG DSNT SE-SW RAB34E48 SLP123 P0000 T02890206
  • 082154Z 10008KT 10SM SCT050 33/22 A2988 RMK AO2 LTG DSNT NE-S SLP114 T03330217

TAF KLAF
Valid from the 09 at 00:00 until the 10 at 00:00 UTC


082324Z 0900/0924 17010KT P6SM VCTS FEW025CB SCT035
FM090100 20006KT P6SM FEW050 SCT100
FM090300 VRB03KT P6SM SCT250
FM091600 21007KT P6SM VCSH SCT035 BKN100
FM092100 19006KT P6SM FEW040 SCT100 AMD LTD TO CLD VIS AND WIND 0901/0913
KZAU FIR / North America



MET'MAP, your aeronautical weather chart ! - Copyright ORBIFLY December 2007 - Disclaimer

ORBIFLY MET'MAP TEAM :

Programming & Development : Alexandra Zaïnal
Concept & original design : Baudouin d'Aumeries
Assistance for programming : Marc-Olivier Méhu
Technical & hardware support : Manuel Goepfert

Contact : metmap@orbifly.com




SOURCES & CREDITS :

   NOAA       Earth
Advisory